Hamnavoe — VSTY7 — position and weather

sailwx.info

Track history (hours):
 
Tides and Currents Weather Stations Pressure Air Temp Water Temp Dewpoint Dewpoint Depression Visibility Wind Speed Wind Dir Waves Ship Positions

Hamnavoe

Operator: NorthLink Orkey & Shetland Ferries Ltd

Last reported at 2016-Dec-02 23:33 UTC. Time now 2016-Dec-03 00:23 UTC.
Position N 58°58' W 003°18'.

Length 112 m; draft 4.2 m.

Type: Passenger vessel. MMSI: 235449000.

Date/timePositionNaut miles runAvg speedWind from/ knotsBaromVisibWave heightAir tempDewpointWater temp
2016-Dec-02 23:33N 58°58' W 003°18'0 0.0
2016-Dec-02 22:33N 58°58' W 003°18'0 0.0
2016-Dec-02 21:33N 58°58' W 003°18'0 0.0
2016-Dec-02 20:33N 58°58' W 003°18'1212.5
2016-Dec-02 19:34N 58°47' W 003°29'1010.3
2016-Dec-02 18:33N 58°37' W 003°32'1211.6
2016-Dec-02 17:33N 58°48' W 003°29'1111.2
2016-Dec-02 16:33N 58°58' W 003°18'0 0.0
2016-Dec-02 15:29N 58°58' W 003°18'0 0.0
2016-Dec-02 14:17N 58°58' W 003°18'0 0.0
2016-Dec-02 13:32N 58°58' W 003°18'0 0.0
2016-Dec-02 12:29N 58°58' W 003°18'0 0.0
2016-Dec-02 11:29N 58°58' W 003°18'0 0.0
2016-Dec-02 10:29N 58°58' W 003°18'8 8.2
2016-Dec-02 09:33N 58°52' W 003°28'1615.8
2016-Dec-02 08:33N 58°37' W 003°32'8 8.2
2016-Dec-02 07:33N 58°45' W 003°30'1414.3
2016-Dec-02 06:33N 58°58' W 003°18'0 0.2
2016-Dec-02 05:32N 58°58' W 003°18'0 0.0
2016-Dec-02 04:32N 58°58' W 003°18'0 0.0
2016-Dec-02 03:29N 58°58' W 003°18'0 0.0
2016-Dec-02 02:32N 58°58' W 003°18'0 0.0
2016-Dec-02 01:32N 58°58' W 003°18'0 0.0
2016-Dec-02 00:32N 58°58' W 003°18'0 0.0
2016-Dec-01 23:32N 58°58' W 003°18'0 0.0
2016-Dec-01 22:32N 58°58' W 003°18'0 0.0
2016-Dec-01 21:32N 58°58' W 003°18'1 1.2
2016-Dec-01 20:33N 58°57' W 003°17'1211.9
2016-Dec-01 19:32N 58°45' W 003°18'1111.2
2016-Dec-01 18:33N 58°37' W 003°32'1110.6
2016-Dec-01 17:33N 58°47' W 003°30'1212.4
2016-Dec-01 16:34N 58°58' W 003°18'0 0.0
2016-Dec-01 15:28N 58°58' W 003°18'0 0.0
2016-Dec-01 14:31N 58°58' W 003°18'0 0.0
2016-Dec-01 13:31N 58°58' W 003°18'0 0.0
2016-Dec-01 12:31N 58°58' W 003°18'0 0.0
2016-Dec-01 11:28N 58°58' W 003°18'0 0.0
2016-Dec-01 10:34N 58°58' W 003°18'1312.9
2016-Dec-01 09:33N 58°45' W 003°13'1313.1
2016-Dec-01 08:33N 58°37' W 003°32'10 9.5
2016-Dec-01 07:33N 58°46' W 003°33'1313.2
2016-Dec-01 06:33N 58°57' W 003°18'1 1.0
2016-Dec-01 05:32N 58°58' W 003°18'0 0.0
2016-Dec-01 04:32N 58°58' W 003°18'0 0.0
2016-Dec-01 03:32N 58°58' W 003°18'0 0.0
2016-Dec-01 02:32N 58°58' W 003°18'0 0.0
2016-Dec-01 01:32N 58°58' W 003°18'0 0.0
2016-Dec-01 00:29N 58°58' W 003°18'0 0.0
2016-Nov-30 23:32N 58°58' W 003°18'0 0.0
2016-Nov-30 22:29N 58°58' W 003°18'0 0.0
2016-Nov-30 21:29N 58°58' W 003°18'3 3.5
2016-Nov-30 20:33N 58°55' W 003°14'1313.5
2016-Nov-30 19:33N 58°43' W 003°23'8 7.7
2016-Nov-30 18:33N 58°37' W 003°32'1413.7
2016-Nov-30 17:33N 58°50' W 003°31'1010.2
2016-Nov-30 16:33N 58°58' W 003°18'0 0.0
2016-Nov-30 15:32N 58°58' W 003°18'0 0.0
2016-Nov-30 14:32N 58°58' W 003°18'0 0.0
2016-Nov-30 13:32N 58°58' W 003°18'0 0.0
2016-Nov-30 12:32N 58°58' W 003°18'0 0.0
2016-Nov-30 11:32N 58°58' W 003°18'0 0.0
2016-Nov-30 10:33N 58°58' W 003°18'1212.3
2016-Nov-30 09:33N 58°46' W 003°10'1515.3
2016-Nov-30 08:33N 58°37' W 003°32'9 8.9
2016-Nov-30 07:34N 58°46' W 003°32'1313.1
2016-Nov-30 06:33N 58°57' W 003°19'1 1.1
2016-Nov-30 05:33N 58°58' W 003°18'0 0.0
2016-Nov-30 04:33N 58°58' W 003°18'0 0.0
2016-Nov-30 03:33N 58°58' W 003°18'0 0.0
2016-Nov-30 02:33N 58°58' W 003°18'0 0.0
2016-Nov-30 01:21N 58°58' W 003°18'0 0.0
2016-Nov-30 00:33N 58°58' W 003°18'0 0.0
2016-Nov-29 23:33N 58°58' W 003°18'0 0.0
2016-Nov-29 22:33N 58°58' W 003°18'0 0.0
2016-Nov-29 21:33N 58°58' W 003°18'4 4.1
2016-Nov-29 20:33N 58°54' W 003°13'1413.9
2016-Nov-29 19:32N 58°41' W 003°24'5 3.9
2016-Nov-29 18:21N 58°39' W 003°31'1417.6
2016-Nov-29 17:33N 58°53' W 003°29'8 7.6
2016-Nov-29 16:31N 58°58' W 003°18'0 0.0
2016-Nov-29 15:31N 58°58' W 003°18'0 0.0
2016-Nov-29 14:31N 58°58' W 003°18'0 0.0
2016-Nov-29 13:31N 58°58' W 003°18'0 0.0
2016-Nov-29 12:31N 58°58' W 003°18'0 0.0
2016-Nov-29 11:31N 58°58' W 003°18'0 0.0
2016-Nov-29 10:33N 58°58' W 003°18'1211.8
2016-Nov-29 09:33N 58°47' W 003°07'1716.9
2016-Nov-29 08:33N 58°37' W 003°32'8 8.0
2016-Nov-29 07:33N 58°45' W 003°31'1414.0
2016-Nov-29 06:33N 58°57' W 003°18'1 0.9
2016-Nov-29 05:32N 58°58' W 003°18'0 0.0
2016-Nov-29 04:32N 58°58' W 003°18'0 0.0
2016-Nov-29 03:32N 58°58' W 003°18'0 0.0
2016-Nov-29 02:32N 58°58' W 003°18'0 0.0
2016-Nov-29 01:32N 58°58' W 003°18'0 0.0
2016-Nov-29 00:32N 58°58' W 003°18'0 0.0
2016-Nov-28 23:32N 58°58' W 003°18'0 0.0
2016-Nov-28 22:32N 58°58' W 003°18'0 0.0
2016-Nov-28 21:32N 58°58' W 003°18'0 0.0
2016-Nov-28 20:32N 58°58' W 003°18'1111.3
2016-Nov-28 19:33N 58°48' W 003°29'1211.7
2016-Nov-28 18:33N 58°37' W 003°32'1111.0
2016-Nov-28 17:33N 58°48' W 003°29'1211.7
2016-Nov-28 16:33N 58°58' W 003°18'0 0.0
2016-Nov-28 15:33N 58°58' W 003°18'0 0.0
2016-Nov-28 14:30N 58°58' W 003°18'0 0.0
2016-Nov-28 13:33N 58°58' W 003°18'0 0.0
2016-Nov-28 12:33N 58°58' W 003°18'0 0.0
2016-Nov-28 11:33N 58°58' W 003°18'0 0.0
2016-Nov-28 10:33N 58°58' W 003°18'7 6.9
2016-Nov-28 09:33N 58°53' W 003°27'1716.6
2016-Nov-28 08:34N 58°37' W 003°32'7 6.7
2016-Nov-28 07:33N 58°43' W 003°30'1515.5
2016-Nov-28 06:33N 58°57' W 003°17'1 0.6
2016-Nov-28 05:29N 58°58' W 003°18'0 0.0
2016-Nov-28 04:32N 58°58' W 003°18'0 0.0
2016-Nov-28 03:32N 58°58' W 003°18'0 0.0
2016-Nov-28 02:32N 58°58' W 003°18'0 0.0
2016-Nov-28 01:32N 58°58' W 003°18'0 0.0
2016-Nov-28 00:29N 58°58' W 003°18'0 0.0
2016-Nov-27 23:29N 58°58' W 003°18'0 0.0
2016-Nov-27 22:29N 58°58' W 003°18'0 0.0
2016-Nov-27 21:29N 58°58' W 003°18'0 0.0
2016-Nov-27 20:33N 58°58' W 003°18'1110.9
2016-Nov-27 19:33N 58°49' W 003°29'1212.1
2016-Nov-27 18:33N 58°37' W 003°32'1111.1
2016-Nov-27 17:33N 58°48' W 003°29'1211.8
2016-Nov-27 16:33N 58°58' W 003°18'0 0.0
2016-Nov-27 15:33N 58°58' W 003°18'0 0.0
2016-Nov-27 14:33N 58°58' W 003°18'0 0.0
2016-Nov-27 13:33N 58°58' W 003°18'1111.1
2016-Nov-27 12:33N 58°48' W 003°29'1211.9
2016-Nov-27 11:33N 58°37' W 003°32'0 0.0
2016-Nov-27 10:34N 58°37' W 003°32'1515.1
2016-Nov-27 09:33N 58°52' W 003°28'8 8.1
2016-Nov-27 08:33N 58°58' W 003°18'0 0.0
2016-Nov-27 07:33N 58°58' W 003°18'0 0.0
2016-Nov-27 06:30N 58°58' W 003°18'0 0.0
2016-Nov-27 05:33N 58°58' W 003°18'0 0.0
2016-Nov-27 04:30N 58°58' W 003°18'0 0.0
2016-Nov-27 03:30N 58°58' W 003°18'0 0.0
2016-Nov-27 02:30N 58°58' W 003°18'0 0.0
2016-Nov-27 01:30N 58°58' W 003°18'0 0.0
2016-Nov-27 00:18N 58°58' W 003°18'0 0.0
2016-Nov-26 23:30N 58°58' W 003°18'0 0.0
2016-Nov-26 22:30N 58°58' W 003°18'0 0.0
2016-Nov-26 21:30N 58°58' W 003°18'0 0.0
2016-Nov-26 20:33N 58°58' W 003°18'1111.3
2016-Nov-26 19:33N 58°48' W 003°29'1211.5
2016-Nov-26 18:33N 58°37' W 003°32'1111.2
2016-Nov-26 17:33N 58°48' W 003°29'1211.6
2016-Nov-26 16:33N 58°58' W 003°18'0 0.0
2016-Nov-26 15:28N 58°58' W 003°18'0 0.0
2016-Nov-26 14:16N 58°58' W 003°18'0 0.0
2016-Nov-26 13:33N 58°58' W 003°18'1211.6
2016-Nov-26 12:33N 58°48' W 003°29'1110.0
2016-Nov-26 11:26N 58°37' W 003°32'0 0.0
2016-Nov-26 10:32N 58°37' W 003°32'1515.4
2016-Nov-26 09:33N 58°52' W 003°29'8 7.9
2016-Nov-26 08:31N 58°58' W 003°18'0 0.0
2016-Nov-26 07:28N 58°58' W 003°18'0 0.0
2016-Nov-26 06:28N 58°58' W 003°18'0 0.0
2016-Nov-26 05:28N 58°58' W 003°18'0 0.0
2016-Nov-26 04:28N 58°58' W 003°18'0 0.0
2016-Nov-26 03:28N 58°58' W 003°18'0 0.0
2016-Nov-26 02:28N 58°58' W 003°18'0 0.0
2016-Nov-26 01:28N 58°58' W 003°18'0 0.0
2016-Nov-26 00:28N 58°58' W 003°18'0 0.0
2016-Nov-25 23:28N 58°58' W 003°18'0 0.0
2016-Nov-25 22:28N 58°58' W 003°18'0 0.0
2016-Nov-25 21:28N 58°58' W 003°18'0 0.4
2016-Nov-25 20:34N 58°57' W 003°18'1413.4
2016-Nov-25 19:33N 58°44' W 003°16'1111.2
2016-Nov-25 18:33N 58°37' W 003°32'1312.9
2016-Nov-25 17:34N 58°49' W 003°31'1110.6
2016-Nov-25 16:33N 58°58' W 003°18'0 0.0
2016-Nov-25 15:33N 58°58' W 003°18'0 0.0
2016-Nov-25 14:33N 58°58' W 003°18'0 0.0
2016-Nov-25 13:33N 58°58' W 003°18'0 0.0
2016-Nov-25 12:33N 58°58' W 003°18'0 0.0
2016-Nov-25 11:33N 58°58' W 003°18'0 0.0
2016-Nov-25 10:33N 58°58' W 003°18'1212.3
2016-Nov-25 09:33N 58°46' W 003°10'1515.0
2016-Nov-25 08:33N 58°37' W 003°32'8 8.4
2016-Nov-25 07:33N 58°45' W 003°31'1414.0
2016-Nov-25 06:33N 58°57' W 003°17'1 0.8
2016-Nov-25 05:32N 58°58' W 003°18'0 0.0
2016-Nov-25 04:32N 58°58' W 003°18'0 0.0
2016-Nov-25 03:32N 58°58' W 003°18'0 0.0
2016-Nov-25 02:32N 58°58' W 003°18'0 0.0
2016-Nov-25 01:32N 58°58' W 003°18'0 0.0
2016-Nov-25 00:32N 58°58' W 003°18'0 0.0
2016-Nov-24 23:32N 58°58' W 003°18'0 0.0
2016-Nov-24 22:32N 58°58' W 003°18'0 0.0
2016-Nov-24 21:32N 58°58' W 003°18'0 0.0
2016-Nov-24 20:33N 58°58' W 003°18'1312.8
2016-Nov-24 19:33N 58°46' W 003°28'10 9.5
2016-Nov-24 18:32N 58°37' W 003°32'1111.6
2016-Nov-24 17:33N 58°48' W 003°29'1211.5
2016-Nov-24 16:33N 58°58' W 003°18'0 0.0
2016-Nov-24 15:33N 58°58' W 003°18'0 0.0
2016-Nov-24 14:33N 58°58' W 003°18'0 0.0
2016-Nov-24 13:21N 58°58' W 003°18'0 0.0
2016-Nov-24 12:33N 58°58' W 003°18'0 0.0
2016-Nov-24 11:33N 58°58' W 003°18'0 0.0
2016-Nov-24 10:33N 58°58' W 003°18'8 7.7
2016-Nov-24 09:33N 58°52' W 003°28'1615.8
2016-Nov-24 08:34N 58°37' W 003°32'6 6.1
2016-Nov-24 07:33N 58°43' W 003°30'1615.6
2016-Nov-24 06:33N 58°57' W 003°17'1 1.0
2016-Nov-24 05:32N 58°58' W 003°18'0 0.0
2016-Nov-24 04:32N 58°58' W 003°18'0 0.0
2016-Nov-24 03:29N 58°58' W 003°18'0 0.0
2016-Nov-24 02:29N 58°58' W 003°18'0 0.0
2016-Nov-24 01:32N 58°58' W 003°18'0 0.0
2016-Nov-24 00:29N 58°58' W 003°18'0 0.0
2016-Nov-23 23:29N 58°58' W 003°18'0 0.0
2016-Nov-23 22:29N 58°58' W 003°18'0 0.0
2016-Nov-23 21:29N 58°58' W 003°18'0 0.0
2016-Nov-23 20:33N 58°58' W 003°18'1312.6
2016-Nov-23 19:33N 58°46' W 003°28'1010.0
2016-Nov-23 18:33N 58°37' W 003°32'1110.8
2016-Nov-23 17:33N 58°47' W 003°29'1212.0
2016-Nov-23 16:33N 58°58' W 003°18'0 0.0
2016-Nov-23 15:33N 58°58' W 003°18'0 0.0
2016-Nov-23 14:33N 58°58' W 003°18'0 0.0
2016-Nov-23 13:33N 58°58' W 003°18'0 0.0
2016-Nov-23 12:33N 58°58' W 003°18'0 0.0
2016-Nov-23 11:33N 58°58' W 003°18'0 0.0
2016-Nov-23 10:33N 58°58' W 003°18'8 7.6
2016-Nov-23 09:33N 58°52' W 003°28'1615.9
2016-Nov-23 08:33N 58°37' W 003°32'6 6.2
2016-Nov-23 07:33N 58°43' W 003°31'1616.2
2016-Nov-23 06:33N 58°57' W 003°18'0 0.1
2016-Nov-23 03:31N 58°58' W 003°18'0 0.0
2016-Nov-23 02:31N 58°58' W 003°18'0 0.0
2016-Nov-23 00:31N 58°58' W 003°18'  
Track history (hours):
 
Tides and Currents Weather Stations Pressure Air Temp Water Temp Dewpoint Dewpoint Depression Visibility Wind Speed Wind Dir Waves Ship Positions

Hamnavoe

Operator: NorthLink Orkey & Shetland Ferries Ltd

Last reported at 2016-Dec-02 23:33 UTC. Time now 2016-Dec-03 00:23 UTC.
Position N 58°58' W 003°18'.

Length 112 m; draft 4.2 m.

Type: Passenger vessel. MMSI: 235449000.

Date/timePositionNaut miles runAvg speedWind from/ knotsBaromVisibWave heightAir tempDewpointWater temp
2016-Dec-02 23:33N 58°58' W 003°18'0 0.0
2016-Dec-02 22:33N 58°58' W 003°18'0 0.0
2016-Dec-02 21:33N 58°58' W 003°18'0 0.0
2016-Dec-02 20:33N 58°58' W 003°18'1212.5
2016-Dec-02 19:34N 58°47' W 003°29'1010.3
2016-Dec-02 18:33N 58°37' W 003°32'1211.6
2016-Dec-02 17:33N 58°48' W 003°29'1111.2
2016-Dec-02 16:33N 58°58' W 003°18'0 0.0
2016-Dec-02 15:29N 58°58' W 003°18'0 0.0
2016-Dec-02 14:17N 58°58' W 003°18'0 0.0
2016-Dec-02 13:32N 58°58' W 003°18'0 0.0
2016-Dec-02 12:29N 58°58' W 003°18'0 0.0
2016-Dec-02 11:29N 58°58' W 003°18'0 0.0
2016-Dec-02 10:29N 58°58' W 003°18'8 8.2
2016-Dec-02 09:33N 58°52' W 003°28'1615.8
2016-Dec-02 08:33N 58°37' W 003°32'8 8.2
2016-Dec-02 07:33N 58°45' W 003°30'1414.3
2016-Dec-02 06:33N 58°58' W 003°18'0 0.2
2016-Dec-02 05:32N 58°58' W 003°18'0 0.0
2016-Dec-02 04:32N 58°58' W 003°18'0 0.0
2016-Dec-02 03:29N 58°58' W 003°18'0 0.0
2016-Dec-02 02:32N 58°58' W 003°18'0 0.0
2016-Dec-02 01:32N 58°58' W 003°18'0 0.0
2016-Dec-02 00:32N 58°58' W 003°18'0 0.0
2016-Dec-01 23:32N 58°58' W 003°18'0 0.0
2016-Dec-01 22:32N 58°58' W 003°18'0 0.0
2016-Dec-01 21:32N 58°58' W 003°18'1 1.2
2016-Dec-01 20:33N 58°57' W 003°17'1211.9
2016-Dec-01 19:32N 58°45' W 003°18'1111.2
2016-Dec-01 18:33N 58°37' W 003°32'1110.6
2016-Dec-01 17:33N 58°47' W 003°30'1212.4
2016-Dec-01 16:34N 58°58' W 003°18'0 0.0
2016-Dec-01 15:28N 58°58' W 003°18'0 0.0
2016-Dec-01 14:31N 58°58' W 003°18'0 0.0
2016-Dec-01 13:31N 58°58' W 003°18'0 0.0
2016-Dec-01 12:31N 58°58' W 003°18'0 0.0
2016-Dec-01 11:28N 58°58' W 003°18'0 0.0
2016-Dec-01 10:34N 58°58' W 003°18'1312.9
2016-Dec-01 09:33N 58°45' W 003°13'1313.1
2016-Dec-01 08:33N 58°37' W 003°32'10 9.5
2016-Dec-01 07:33N 58°46' W 003°33'1313.2
2016-Dec-01 06:33N 58°57' W 003°18'1 1.0
2016-Dec-01 05:32N 58°58' W 003°18'0 0.0
2016-Dec-01 04:32N 58°58' W 003°18'0 0.0
2016-Dec-01 03:32N 58°58' W 003°18'0 0.0
2016-Dec-01 02:32N 58°58' W 003°18'0 0.0
2016-Dec-01 01:32N 58°58' W 003°18'0 0.0
2016-Dec-01 00:29N 58°58' W 003°18'0 0.0
2016-Nov-30 23:32N 58°58' W 003°18'0 0.0
2016-Nov-30 22:29N 58°58' W 003°18'0 0.0
2016-Nov-30 21:29N 58°58' W 003°18'3 3.5
2016-Nov-30 20:33N 58°55' W 003°14'1313.5
2016-Nov-30 19:33N 58°43' W 003°23'8 7.7
2016-Nov-30 18:33N 58°37' W 003°32'1413.7
2016-Nov-30 17:33N 58°50' W 003°31'1010.2
2016-Nov-30 16:33N 58°58' W 003°18'0 0.0
2016-Nov-30 15:32N 58°58' W 003°18'0 0.0
2016-Nov-30 14:32N 58°58' W 003°18'0 0.0
2016-Nov-30 13:32N 58°58' W 003°18'0 0.0
2016-Nov-30 12:32N 58°58' W 003°18'0 0.0
2016-Nov-30 11:32N 58°58' W 003°18'0 0.0
2016-Nov-30 10:33N 58°58' W 003°18'1212.3
2016-Nov-30 09:33N 58°46' W 003°10'1515.3
2016-Nov-30 08:33N 58°37' W 003°32'9 8.9
2016-Nov-30 07:34N 58°46' W 003°32'1313.1
2016-Nov-30 06:33N 58°57' W 003°19'1 1.1
2016-Nov-30 05:33N 58°58' W 003°18'0 0.0
2016-Nov-30 04:33N 58°58' W 003°18'0 0.0
2016-Nov-30 03:33N 58°58' W 003°18'0 0.0
2016-Nov-30 02:33N 58°58' W 003°18'0 0.0
2016-Nov-30 01:21N 58°58' W 003°18'0 0.0
2016-Nov-30 00:33N 58°58' W 003°18'0 0.0
2016-Nov-29 23:33N 58°58' W 003°18'0 0.0
2016-Nov-29 22:33N 58°58' W 003°18'0 0.0
2016-Nov-29 21:33N 58°58' W 003°18'4 4.1
2016-Nov-29 20:33N 58°54' W 003°13'1413.9
2016-Nov-29 19:32N 58°41' W 003°24'5 3.9
2016-Nov-29 18:21N 58°39' W 003°31'1417.6
2016-Nov-29 17:33N 58°53' W 003°29'8 7.6
2016-Nov-29 16:31N 58°58' W 003°18'0 0.0
2016-Nov-29 15:31N 58°58' W 003°18'0 0.0
2016-Nov-29 14:31N 58°58' W 003°18'0 0.0
2016-Nov-29 13:31N 58°58' W 003°18'0 0.0
2016-Nov-29 12:31N 58°58' W 003°18'0 0.0
2016-Nov-29 11:31N 58°58' W 003°18'0 0.0
2016-Nov-29 10:33N 58°58' W 003°18'1211.8
2016-Nov-29 09:33N 58°47' W 003°07'1716.9
2016-Nov-29 08:33N 58°37' W 003°32'8 8.0
2016-Nov-29 07:33N 58°45' W 003°31'1414.0
2016-Nov-29 06:33N 58°57' W 003°18'1 0.9
2016-Nov-29 05:32N 58°58' W 003°18'0 0.0
2016-Nov-29 04:32N 58°58' W 003°18'0 0.0
2016-Nov-29 03:32N 58°58' W 003°18'0 0.0
2016-Nov-29 02:32N 58°58' W 003°18'0 0.0
2016-Nov-29 01:32N 58°58' W 003°18'0 0.0
2016-Nov-29 00:32N 58°58' W 003°18'0 0.0
2016-Nov-28 23:32N 58°58' W 003°18'0 0.0
2016-Nov-28 22:32N 58°58' W 003°18'0 0.0
2016-Nov-28 21:32N 58°58' W 003°18'0 0.0
2016-Nov-28 20:32N 58°58' W 003°18'1111.3
2016-Nov-28 19:33N 58°48' W 003°29'1211.7
2016-Nov-28 18:33N 58°37' W 003°32'1111.0
2016-Nov-28 17:33N 58°48' W 003°29'1211.7
2016-Nov-28 16:33N 58°58' W 003°18'0 0.0
2016-Nov-28 15:33N 58°58' W 003°18'0 0.0
2016-Nov-28 14:30N 58°58' W 003°18'0 0.0
2016-Nov-28 13:33N 58°58' W 003°18'0 0.0
2016-Nov-28 12:33N 58°58' W 003°18'0 0.0
2016-Nov-28 11:33N 58°58' W 003°18'0 0.0
2016-Nov-28 10:33N 58°58' W 003°18'7 6.9
2016-Nov-28 09:33N 58°53' W 003°27'1716.6
2016-Nov-28 08:34N 58°37' W 003°32'7 6.7
2016-Nov-28 07:33N 58°43' W 003°30'1515.5
2016-Nov-28 06:33N 58°57' W 003°17'1 0.6
2016-Nov-28 05:29N 58°58' W 003°18'0 0.0
2016-Nov-28 04:32N 58°58' W 003°18'0 0.0
2016-Nov-28 03:32N 58°58' W 003°18'0 0.0
2016-Nov-28 02:32N 58°58' W 003°18'0 0.0
2016-Nov-28 01:32N 58°58' W 003°18'0 0.0
2016-Nov-28 00:29N 58°58' W 003°18'0 0.0
2016-Nov-27 23:29N 58°58' W 003°18'0 0.0
2016-Nov-27 22:29N 58°58' W 003°18'0 0.0
2016-Nov-27 21:29N 58°58' W 003°18'0 0.0
2016-Nov-27 20:33N 58°58' W 003°18'1110.9
2016-Nov-27 19:33N 58°49' W 003°29'1212.1
2016-Nov-27 18:33N 58°37' W 003°32'1111.1
2016-Nov-27 17:33N 58°48' W 003°29'1211.8
2016-Nov-27 16:33N 58°58' W 003°18'0 0.0
2016-Nov-27 15:33N 58°58' W 003°18'0 0.0
2016-Nov-27 14:33N 58°58' W 003°18'0 0.0
2016-Nov-27 13:33N 58°58' W 003°18'1111.1
2016-Nov-27 12:33N 58°48' W 003°29'1211.9
2016-Nov-27 11:33N 58°37' W 003°32'0 0.0
2016-Nov-27 10:34N 58°37' W 003°32'1515.1
2016-Nov-27 09:33N 58°52' W 003°28'8 8.1
2016-Nov-27 08:33N 58°58' W 003°18'0 0.0
2016-Nov-27 07:33N 58°58' W 003°18'0 0.0
2016-Nov-27 06:30N 58°58' W 003°18'0 0.0
2016-Nov-27 05:33N 58°58' W 003°18'0 0.0
2016-Nov-27 04:30N 58°58' W 003°18'0 0.0
2016-Nov-27 03:30N 58°58' W 003°18'0 0.0
2016-Nov-27 02:30N 58°58' W 003°18'0 0.0
2016-Nov-27 01:30N 58°58' W 003°18'0 0.0
2016-Nov-27 00:18N 58°58' W 003°18'0 0.0
2016-Nov-26 23:30N 58°58' W 003°18'0 0.0
2016-Nov-26 22:30N 58°58' W 003°18'0 0.0
2016-Nov-26 21:30N 58°58' W 003°18'0 0.0
2016-Nov-26 20:33N 58°58' W 003°18'1111.3
2016-Nov-26 19:33N 58°48' W 003°29'1211.5
2016-Nov-26 18:33N 58°37' W 003°32'1111.2
2016-Nov-26 17:33N 58°48' W 003°29'1211.6
2016-Nov-26 16:33N 58°58' W 003°18'0 0.0
2016-Nov-26 15:28N 58°58' W 003°18'0 0.0
2016-Nov-26 14:16N 58°58' W 003°18'0 0.0
2016-Nov-26 13:33N 58°58' W 003°18'1211.6
2016-Nov-26 12:33N 58°48' W 003°29'1110.0
2016-Nov-26 11:26N 58°37' W 003°32'0 0.0
2016-Nov-26 10:32N 58°37' W 003°32'1515.4
2016-Nov-26 09:33N 58°52' W 003°29'8 7.9
2016-Nov-26 08:31N 58°58' W 003°18'0 0.0
2016-Nov-26 07:28N 58°58' W 003°18'0 0.0
2016-Nov-26 06:28N 58°58' W 003°18'0 0.0
2016-Nov-26 05:28N 58°58' W 003°18'0 0.0
2016-Nov-26 04:28N 58°58' W 003°18'0 0.0
2016-Nov-26 03:28N 58°58' W 003°18'0 0.0
2016-Nov-26 02:28N 58°58' W 003°18'0 0.0
2016-Nov-26 01:28N 58°58' W 003°18'0 0.0
2016-Nov-26 00:28N 58°58' W 003°18'0 0.0
2016-Nov-25 23:28N 58°58' W 003°18'0 0.0
2016-Nov-25 22:28N 58°58' W 003°18'0 0.0
2016-Nov-25 21:28N 58°58' W 003°18'0 0.4
2016-Nov-25 20:34N 58°57' W 003°18'1413.4
2016-Nov-25 19:33N 58°44' W 003°16'1111.2
2016-Nov-25 18:33N 58°37' W 003°32'1312.9
2016-Nov-25 17:34N 58°49' W 003°31'1110.6
2016-Nov-25 16:33N 58°58' W 003°18'0 0.0
2016-Nov-25 15:33N 58°58' W 003°18'0 0.0
2016-Nov-25 14:33N 58°58' W 003°18'0 0.0
2016-Nov-25 13:33N 58°58' W 003°18'0 0.0
2016-Nov-25 12:33N 58°58' W 003°18'0 0.0
2016-Nov-25 11:33N 58°58' W 003°18'0 0.0
2016-Nov-25 10:33N 58°58' W 003°18'1212.3
2016-Nov-25 09:33N 58°46' W 003°10'1515.0
2016-Nov-25 08:33N 58°37' W 003°32'8 8.4
2016-Nov-25 07:33N 58°45' W 003°31'1414.0
2016-Nov-25 06:33N 58°57' W 003°17'1 0.8
2016-Nov-25 05:32N 58°58' W 003°18'0 0.0
2016-Nov-25 04:32N 58°58' W 003°18'0 0.0
2016-Nov-25 03:32N 58°58' W 003°18'0 0.0
2016-Nov-25 02:32N 58°58' W 003°18'0 0.0
2016-Nov-25 01:32N 58°58' W 003°18'0 0.0
2016-Nov-25 00:32N 58°58' W 003°18'0 0.0
2016-Nov-24 23:32N 58°58' W 003°18'0 0.0
2016-Nov-24 22:32N 58°58' W 003°18'0 0.0
2016-Nov-24 21:32N 58°58' W 003°18'0 0.0
2016-Nov-24 20:33N 58°58' W 003°18'1312.8
2016-Nov-24 19:33N 58°46' W 003°28'10 9.5
2016-Nov-24 18:32N 58°37' W 003°32'1111.6
2016-Nov-24 17:33N 58°48' W 003°29'1211.5
2016-Nov-24 16:33N 58°58' W 003°18'0 0.0
2016-Nov-24 15:33N 58°58' W 003°18'0 0.0
2016-Nov-24 14:33N 58°58' W 003°18'0 0.0
2016-Nov-24 13:21N 58°58' W 003°18'0 0.0
2016-Nov-24 12:33N 58°58' W 003°18'0 0.0
2016-Nov-24 11:33N 58°58' W 003°18'0 0.0
2016-Nov-24 10:33N 58°58' W 003°18'8 7.7
2016-Nov-24 09:33N 58°52' W 003°28'1615.8
2016-Nov-24 08:34N 58°37' W 003°32'6 6.1
2016-Nov-24 07:33N 58°43' W 003°30'1615.6
2016-Nov-24 06:33N 58°57' W 003°17'1 1.0
2016-Nov-24 05:32N 58°58' W 003°18'0 0.0
2016-Nov-24 04:32N 58°58' W 003°18'0 0.0
2016-Nov-24 03:29N 58°58' W 003°18'0 0.0
2016-Nov-24 02:29N 58°58' W 003°18'0 0.0
2016-Nov-24 01:32N 58°58' W 003°18'0 0.0
2016-Nov-24 00:29N 58°58' W 003°18'0 0.0
2016-Nov-23 23:29N 58°58' W 003°18'0 0.0
2016-Nov-23 22:29N 58°58' W 003°18'0 0.0
2016-Nov-23 21:29N 58°58' W 003°18'0 0.0
2016-Nov-23 20:33N 58°58' W 003°18'1312.6
2016-Nov-23 19:33N 58°46' W 003°28'1010.0
2016-Nov-23 18:33N 58°37' W 003°32'1110.8
2016-Nov-23 17:33N 58°47' W 003°29'1212.0
2016-Nov-23 16:33N 58°58' W 003°18'0 0.0
2016-Nov-23 15:33N 58°58' W 003°18'0 0.0
2016-Nov-23 14:33N 58°58' W 003°18'0 0.0
2016-Nov-23 13:33N 58°58' W 003°18'0 0.0
2016-Nov-23 12:33N 58°58' W 003°18'0 0.0
2016-Nov-23 11:33N 58°58' W 003°18'0 0.0
2016-Nov-23 10:33N 58°58' W 003°18'8 7.6
2016-Nov-23 09:33N 58°52' W 003°28'1615.9
2016-Nov-23 08:33N 58°37' W 003°32'6 6.2
2016-Nov-23 07:33N 58°43' W 003°31'1616.2
2016-Nov-23 06:33N 58°57' W 003°18'0 0.1
2016-Nov-23 03:31N 58°58' W 003°18'0 0.0
2016-Nov-23 02:31N 58°58' W 003°18'0 0.0
2016-Nov-23 00:31N 58°58' W 003°18'  

Dump ship's entire track history